sensor_id;sensor_type;location;lat;lon;timestamp;pressure;altitude;pressure_sealevel;temperature;humidity
21234;BME280;10774;42.178;26.578;2023-11-22T00:01:16;99433.09;;;13.46;100.00
21234;BME280;10774;42.178;26.578;2023-11-22T00:03:41;99431.63;;;13.42;100.00
21234;BME280;10774;42.178;26.578;2023-11-22T00:06:06;99424.78;;;13.38;100.00
21234;BME280;10774;42.178;26.578;2023-11-22T00:08:32;99427.31;;;13.39;100.00
21234;BME280;10774;42.178;26.578;2023-11-22T00:10:59;99432.13;;;13.36;100.00
21234;BME280;10774;42.178;26.578;2023-11-22T00:13:24;99427.28;;;13.29;100.00
21234;BME280;10774;42.178;26.578;2023-11-22T00:15:49;99430.69;;;13.31;100.00
21234;BME280;10774;42.178;26.578;2023-11-22T00:18:18;99402.44;;;13.03;100.00
21234;BME280;10774;42.178;26.578;2023-11-22T00:20:43;99428.22;;;13.17;100.00
21234;BME280;10774;42.178;26.578;2023-11-22T00:23:09;99428.22;;;13.17;100.00
21234;BME280;10774;42.178;26.578;2023-11-22T00:25:34;99430.34;;;13.14;100.00
21234;BME280;10774;42.178;26.578;2023-11-22T00:28:00;99438.81;;;13.09;100.00
21234;BME280;10774;42.178;26.578;2023-11-22T00:30:25;99439.91;;;13.06;100.00
21234;BME280;10774;42.178;26.578;2023-11-22T00:32:51;99442.50;;;13.08;100.00
21234;BME280;10774;42.178;26.578;2023-11-22T00:35:17;99412.13;;;12.95;100.00
21234;BME280;10774;42.178;26.578;2023-11-22T00:37:42;99429.25;;;13.05;100.00
21234;BME280;10774;42.178;26.578;2023-11-22T00:40:08;99431.22;;;13.03;100.00
21234;BME280;10774;42.178;26.578;2023-11-22T00:42:37;99431.72;;;12.97;100.00
21234;BME280;10774;42.178;26.578;2023-11-22T00:45:05;99432.94;;;13.04;100.00
21234;BME280;10774;42.178;26.578;2023-11-22T00:47:32;99430.81;;;13.07;100.00
21234;BME280;10774;42.178;26.578;2023-11-22T00:49:58;99444.41;;;13.17;100.00
21234;BME280;10774;42.178;26.578;2023-11-22T00:52:24;99454.34;;;13.05;100.00
21234;BME280;10774;42.178;26.578;2023-11-22T00:54:49;99437.34;;;13.05;100.00
21234;BME280;10774;42.178;26.578;2023-11-22T00:57:15;99440.28;;;13.13;100.00
21234;BME280;10774;42.178;26.578;2023-11-22T00:59:40;99437.69;;;13.23;100.00
21234;BME280;10774;42.178;26.578;2023-11-22T01:02:06;99429.88;;;13.08;100.00
21234;BME280;10774;42.178;26.578;2023-11-22T01:04:34;99436.88;;;13.00;100.00
21234;BME280;10774;42.178;26.578;2023-11-22T01:07:01;99429.03;;;12.97;100.00
21234;BME280;10774;42.178;26.578;2023-11-22T01:09:27;99435.41;;;12.96;100.00
21234;BME280;10774;42.178;26.578;2023-11-22T01:11:54;99434.66;;;13.05;100.00
21234;BME280;10774;42.178;26.578;2023-11-22T01:14:19;99418.50;;;12.94;100.00
21234;BME280;10774;42.178;26.578;2023-11-22T01:16:45;99429.03;;;12.97;100.00
21234;BME280;10774;42.178;26.578;2023-11-22T01:19:10;99426.59;;;12.94;100.00
21234;BME280;10774;42.178;26.578;2023-11-22T01:21:36;99408.25;;;12.88;100.00
21234;BME280;10774;42.178;26.578;2023-11-22T01:24:02;99416.56;;;12.85;100.00
21234;BME280;10774;42.178;26.578;2023-11-22T01:26:28;99423.16;;;12.92;100.00
21234;BME280;10774;42.178;26.578;2023-11-22T01:28:53;99418.88;;;12.89;100.00
21234;BME280;10774;42.178;26.578;2023-11-22T01:31:19;99418.03;;;12.89;100.00
21234;BME280;10774;42.178;26.578;2023-11-22T01:33:46;99413.16;;;12.82;100.00
21234;BME280;10774;42.178;26.578;2023-11-22T01:36:13;99409.22;;;12.87;100.00
21234;BME280;10774;42.178;26.578;2023-11-22T01:38:40;99386.94;;;12.85;100.00
21234;BME280;10774;42.178;26.578;2023-11-22T01:41:06;99402.38;;;12.82;100.00
21234;BME280;10774;42.178;26.578;2023-11-22T01:43:32;99402.72;;;12.89;100.00
21234;BME280;10774;42.178;26.578;2023-11-22T01:45:58;99391.47;;;12.84;100.00
21234;BME280;10774;42.178;26.578;2023-11-22T01:48:24;99391.94;;;12.89;100.00
21234;BME280;10774;42.178;26.578;2023-11-22T01:50:50;99378.63;;;12.88;100.00
21234;BME280;10774;42.178;26.578;2023-11-22T01:53:16;99390.09;;;12.90;100.00
21234;BME280;10774;42.178;26.578;2023-11-22T01:55:43;99389.91;;;12.81;100.00
21234;BME280;10774;42.178;26.578;2023-11-22T01:58:10;99391.00;;;12.79;100.00
21234;BME280;10774;42.178;26.578;2023-11-22T02:00:49;99397.84;;;12.83;100.00
21234;BME280;10774;42.178;26.578;2023-11-22T02:03:15;99400.19;;;12.76;100.00
21234;BME280;10774;42.178;26.578;2023-11-22T02:05:41;99406.44;;;12.77;100.00
21234;BME280;10774;42.178;26.578;2023-11-22T02:08:09;99399.94;;;12.79;100.00
21234;BME280;10774;42.178;26.578;2023-11-22T02:10:34;99402.00;;;12.87;100.00
21234;BME280;10774;42.178;26.578;2023-11-22T02:13:02;99392.34;;;12.73;100.00
21234;BME280;10774;42.178;26.578;2023-11-22T02:15:30;99392.59;;;12.81;100.00
21234;BME280;10774;42.178;26.578;2023-11-22T02:17:57;99391.34;;;12.86;100.00
21234;BME280;10774;42.178;26.578;2023-11-22T02:20:23;99391.84;;;12.79;100.00
21234;BME280;10774;42.178;26.578;2023-11-22T02:22:48;99386.72;;;12.76;100.00
21234;BME280;10774;42.178;26.578;2023-11-22T02:25:14;99381.69;;;12.83;100.00
21234;BME280;10774;42.178;26.578;2023-11-22T02:27:40;99372.03;;;12.69;100.00
21234;BME280;10774;42.178;26.578;2023-11-22T02:30:08;99382.31;;;12.64;100.00
21234;BME280;10774;42.178;26.578;2023-11-22T02:32:33;99399.25;;;12.55;100.00
21234;BME280;10774;42.178;26.578;2023-11-22T02:34:59;99390.81;;;12.37;100.00
21234;BME280;10774;42.178;26.578;2023-11-22T02:37:26;99411.34;;;12.49;100.00
21234;BME280;10774;42.178;26.578;2023-11-22T02:40:02;99394.34;;;12.49;100.00
21234;BME280;10774;42.178;26.578;2023-11-22T02:42:30;99401.06;;;12.54;100.00
21234;BME280;10774;42.178;26.578;2023-11-22T02:44:55;99399.69;;;12.60;100.00
21234;BME280;10774;42.178;26.578;2023-11-22T02:47:21;99412.69;;;12.66;100.00
21234;BME280;10774;42.178;26.578;2023-11-22T02:49:47;99396.53;;;12.66;100.00
21234;BME280;10774;42.178;26.578;2023-11-22T02:52:12;99393.94;;;12.65;100.00
21234;BME280;10774;42.178;26.578;2023-11-22T02:54:44;99394.81;;;12.65;100.00
21234;BME280;10774;42.178;26.578;2023-11-22T02:57:12;99398.16;;;12.46;100.00
21234;BME280;10774;42.178;26.578;2023-11-22T02:59:42;99388.00;;;12.50;100.00
21234;BME280;10774;42.178;26.578;2023-11-22T03:02:07;99396.81;;;12.41;100.00
21234;BME280;10774;42.178;26.578;2023-11-22T03:04:33;99396.28;;;12.02;100.00
21234;BME280;10774;42.178;26.578;2023-11-22T03:06:59;99393.59;;;12.02;100.00
21234;BME280;10774;42.178;26.578;2023-11-22T03:09:25;99396.78;;;12.07;100.00
21234;BME280;10774;42.178;26.578;2023-11-22T03:11:52;99407.03;;;12.02;100.00
21234;BME280;10774;42.178;26.578;2023-11-22T03:14:18;99402.91;;;11.87;100.00
21234;BME280;10774;42.178;26.578;2023-11-22T03:16:44;99408.00;;;11.90;100.00
21234;BME280;10774;42.178;26.578;2023-11-22T03:19:10;99400.88;;;11.77;100.00
21234;BME280;10774;42.178;26.578;2023-11-22T03:21:36;99375.81;;;11.77;100.00
21234;BME280;10774;42.178;26.578;2023-11-22T03:24:02;99391.88;;;11.90;100.00
21234;BME280;10774;42.178;26.578;2023-11-22T03:26:29;99401.41;;;11.83;100.00
21234;BME280;10774;42.178;26.578;2023-11-22T03:28:55;99397.25;;;11.90;100.00
21234;BME280;10774;42.178;26.578;2023-11-22T03:31:20;99373.53;;;11.95;100.00
21234;BME280;10774;42.178;26.578;2023-11-22T03:33:46;99379.50;;;11.76;100.00
21234;BME280;10774;42.178;26.578;2023-11-22T03:36:12;99373.63;;;11.71;100.00
21234;BME280;10774;42.178;26.578;2023-11-22T03:38:39;99390.66;;;11.94;100.00
21234;BME280;10774;42.178;26.578;2023-11-22T03:41:04;99386.69;;;11.75;100.00
21234;BME280;10774;42.178;26.578;2023-11-22T03:43:30;99396.72;;;11.73;100.00
21234;BME280;10774;42.178;26.578;2023-11-22T03:45:55;99392.06;;;11.75;100.00
21234;BME280;10774;42.178;26.578;2023-11-22T03:48:21;99386.50;;;11.90;100.00
21234;BME280;10774;42.178;26.578;2023-11-22T03:50:51;99380.91;;;11.58;100.00
21234;BME280;10774;42.178;26.578;2023-11-22T03:53:16;99362.47;;;11.64;100.00
21234;BME280;10774;42.178;26.578;2023-11-22T03:55:42;99372.00;;;11.68;100.00
21234;BME280;10774;42.178;26.578;2023-11-22T03:58:07;99370.31;;;11.67;100.00
21234;BME280;10774;42.178;26.578;2023-11-22T04:00:34;99383.75;;;11.78;100.00
21234;BME280;10774;42.178;26.578;2023-11-22T04:03:00;99373.50;;;11.72;100.00
21234;BME280;10774;42.178;26.578;2023-11-22T04:05:27;99396.72;;;11.73;100.00
21234;BME280;10774;42.178;26.578;2023-11-22T04:07:53;99401.72;;;11.67;100.00
21234;BME280;10774;42.178;26.578;2023-11-22T04:10:19;99394.00;;;11.62;100.00
21234;BME280;10774;42.178;26.578;2023-11-22T04:12:46;99418.69;;;11.67;100.00
21234;BME280;10774;42.178;26.578;2023-11-22T04:15:13;99427.75;;;11.66;100.00
21234;BME280;10774;42.178;26.578;2023-11-22T04:17:40;99427.81;;;11.89;100.00
21234;BME280;10774;42.178;26.578;2023-11-22T04:20:07;99437.22;;;11.59;100.00
21234;BME280;10774;42.178;26.578;2023-11-22T04:22:39;99430.13;;;11.58;100.00
21234;BME280;10774;42.178;26.578;2023-11-22T04:25:05;99429.81;;;11.39;100.00
21234;BME280;10774;42.178;26.578;2023-11-22T04:27:33;99430.00;;;11.24;100.00
21234;BME280;10774;42.178;26.578;2023-11-22T04:29:58;99445.66;;;11.31;100.00
21234;BME280;10774;42.178;26.578;2023-11-22T04:32:23;99424.47;;;11.15;100.00
21234;BME280;10774;42.178;26.578;2023-11-22T04:34:49;99448.19;;;11.21;100.00
21234;BME280;10774;42.178;26.578;2023-11-22T04:37:14;99441.22;;;11.18;100.00
21234;BME280;10774;42.178;26.578;2023-11-22T04:39:40;99455.25;;;11.22;100.00
21234;BME280;10774;42.178;26.578;2023-11-22T04:42:05;99453.38;;;11.11;100.00
21234;BME280;10774;42.178;26.578;2023-11-22T04:44:31;99470.78;;;11.18;100.00
21234;BME280;10774;42.178;26.578;2023-11-22T04:46:57;99469.56;;;11.22;100.00
21234;BME280;10774;42.178;26.578;2023-11-22T04:49:26;99480.16;;;11.00;100.00
21234;BME280;10774;42.178;26.578;2023-11-22T04:51:51;99468.31;;;10.79;100.00
21234;BME280;10774;42.178;26.578;2023-11-22T04:54:17;99450.63;;;11.00;100.00
21234;BME280;10774;42.178;26.578;2023-11-22T04:56:43;99469.44;;;11.00;100.00
21234;BME280;10774;42.178;26.578;2023-11-22T04:59:09;99472.16;;;10.87;100.00
21234;BME280;10774;42.178;26.578;2023-11-22T05:01:34;99475.09;;;11.08;100.00
21234;BME280;10774;42.178;26.578;2023-11-22T05:04:00;99472.19;;;11.11;100.00
21234;BME280;10774;42.178;26.578;2023-11-22T05:06:25;99462.25;;;11.24;100.00
21234;BME280;10774;42.178;26.578;2023-11-22T05:08:52;99467.63;;;11.24;100.00
21234;BME280;10774;42.178;26.578;2023-11-22T05:11:18;99474.50;;;11.29;100.00
21234;BME280;10774;42.178;26.578;2023-11-22T05:13:44;99473.22;;;11.21;100.00
21234;BME280;10774;42.178;26.578;2023-11-22T05:16:10;99481.66;;;11.28;100.00
21234;BME280;10774;42.178;26.578;2023-11-22T05:18:35;99481.44;;;11.31;100.00
21234;BME280;10774;42.178;26.578;2023-11-22T05:21:01;99473.06;;;11.36;100.00
21234;BME280;10774;42.178;26.578;2023-11-22T05:23:29;99490.59;;;11.52;100.00
21234;BME280;10774;42.178;26.578;2023-11-22T05:25:55;99484.16;;;11.55;100.00
21234;BME280;10774;42.178;26.578;2023-11-22T05:28:21;99487.84;;;11.65;100.00
21234;BME280;10774;42.178;26.578;2023-11-22T05:30:47;99502.75;;;11.69;100.00
21234;BME280;10774;42.178;26.578;2023-11-22T05:33:13;99493.72;;;11.70;100.00
21234;BME280;10774;42.178;26.578;2023-11-22T05:35:38;99486.63;;;11.69;100.00
21234;BME280;10774;42.178;26.578;2023-11-22T05:38:05;99490.94;;;11.72;100.00
21234;BME280;10774;42.178;26.578;2023-11-22T05:40:33;99491.53;;;11.75;100.00
21234;BME280;10774;42.178;26.578;2023-11-22T05:42:58;99496.53;;;11.93;100.00
21234;BME280;10774;42.178;26.578;2023-11-22T05:45:24;99476.81;;;11.57;100.00
21234;BME280;10774;42.178;26.578;2023-11-22T05:47:50;99494.00;;;11.78;100.00
21234;BME280;10774;42.178;26.578;2023-11-22T05:50:16;99497.53;;;11.92;100.00
21234;BME280;10774;42.178;26.578;2023-11-22T05:52:42;99503.00;;;11.90;100.00
21234;BME280;10774;42.178;26.578;2023-11-22T05:55:09;99508.50;;;11.89;100.00
21234;BME280;10774;42.178;26.578;2023-11-22T05:57:35;99504.81;;;11.90;100.00
21234;BME280;10774;42.178;26.578;2023-11-22T06:00:01;99501.22;;;11.78;100.00
21234;BME280;10774;42.178;26.578;2023-11-22T06:02:26;99515.19;;;12.18;100.00
21234;BME280;10774;42.178;26.578;2023-11-22T06:04:52;99523.78;;;12.23;100.00
21234;BME280;10774;42.178;26.578;2023-11-22T06:07:17;99519.09;;;12.14;100.00
21234;BME280;10774;42.178;26.578;2023-11-22T06:09:42;99513.47;;;12.17;100.00
21234;BME280;10774;42.178;26.578;2023-11-22T06:12:08;99525.00;;;12.30;100.00
21234;BME280;10774;42.178;26.578;2023-11-22T06:14:33;99510.34;;;12.35;100.00
21234;BME280;10774;42.178;26.578;2023-11-22T06:16:59;99539.41;;;12.18;100.00
21234;BME280;10774;42.178;26.578;2023-11-22T06:19:24;99529.06;;;11.53;100.00
21234;BME280;10774;42.178;26.578;2023-11-22T06:21:49;99527.59;;;11.73;100.00
21234;BME280;10774;42.178;26.578;2023-11-22T06:24:15;99537.25;;;11.75;100.00
21234;BME280;10774;42.178;26.578;2023-11-22T06:26:44;99538.91;;;12.13;100.00
21234;BME280;10774;42.178;26.578;2023-11-22T06:29:11;99546.00;;;12.14;100.00
21234;BME280;10774;42.178;26.578;2023-11-22T06:31:37;99522.09;;;11.74;100.00
21234;BME280;10774;42.178;26.578;2023-11-22T06:34:02;99525.88;;;11.96;100.00
21234;BME280;10774;42.178;26.578;2023-11-22T06:36:28;99527.88;;;12.16;100.00
21234;BME280;10774;42.178;26.578;2023-11-22T06:38:55;99524.66;;;12.46;100.00
21234;BME280;10774;42.178;26.578;2023-11-22T06:41:20;99510.56;;;12.54;100.00
21234;BME280;10774;42.178;26.578;2023-11-22T06:43:47;99532.13;;;12.54;100.00
21234;BME280;10774;42.178;26.578;2023-11-22T06:46:13;99518.31;;;12.01;100.00
21234;BME280;10774;42.178;26.578;2023-11-22T06:48:41;99535.59;;;12.10;100.00
21234;BME280;10774;42.178;26.578;2023-11-22T06:51:07;99533.59;;;11.76;100.00
21234;BME280;10774;42.178;26.578;2023-11-22T06:53:32;99528.84;;;12.04;100.00
21234;BME280;10774;42.178;26.578;2023-11-22T06:55:57;99542.03;;;12.53;100.00
21234;BME280;10774;42.178;26.578;2023-11-22T06:58:23;99535.69;;;12.66;100.00
21234;BME280;10774;42.178;26.578;2023-11-22T07:00:48;99553.44;;;13.02;100.00
21234;BME280;10774;42.178;26.578;2023-11-22T07:03:14;99558.72;;;13.15;100.00
21234;BME280;10774;42.178;26.578;2023-11-22T07:05:40;99549.88;;;13.01;100.00
21234;BME280;10774;42.178;26.578;2023-11-22T07:08:06;99566.41;;;12.97;100.00
21234;BME280;10774;42.178;26.578;2023-11-22T07:10:32;99561.03;;;13.30;100.00
21234;BME280;10774;42.178;26.578;2023-11-22T07:13:00;99557.81;;;13.48;100.00
21234;BME280;10774;42.178;26.578;2023-11-22T07:15:28;99564.22;;;13.36;100.00
21234;BME280;10774;42.178;26.578;2023-11-22T07:17:54;99566.44;;;13.74;100.00
21234;BME280;10774;42.178;26.578;2023-11-22T07:20:20;99576.31;;;13.96;100.00
21234;BME280;10774;42.178;26.578;2023-11-22T07:22:46;99578.44;;;14.13;100.00
21234;BME280;10774;42.178;26.578;2023-11-22T07:25:12;99575.88;;;14.11;100.00
21234;BME280;10774;42.178;26.578;2023-11-22T07:27:47;99566.09;;;14.31;100.00
21234;BME280;10774;42.178;26.578;2023-11-22T07:30:13;99582.97;;;14.12;100.00
21234;BME280;10774;42.178;26.578;2023-11-22T07:32:40;99575.63;;;14.35;100.00
21234;BME280;10774;42.178;26.578;2023-11-22T07:35:07;99568.56;;;14.23;100.00
21234;BME280;10774;42.178;26.578;2023-11-22T07:37:34;99589.22;;;14.13;100.00
21234;BME280;10774;42.178;26.578;2023-11-22T07:40:01;99586.34;;;14.05;100.00
21234;BME280;10774;42.178;26.578;2023-11-22T07:42:29;99590.06;;;13.93;100.00
21234;BME280;10774;42.178;26.578;2023-11-22T07:44:54;99597.94;;;13.84;100.00
21234;BME280;10774;42.178;26.578;2023-11-22T07:47:22;99596.91;;;13.97;100.00
21234;BME280;10774;42.178;26.578;2023-11-22T07:49:50;99595.16;;;14.07;100.00
21234;BME280;10774;42.178;26.578;2023-11-22T07:52:15;99605.88;;;14.18;100.00
21234;BME280;10774;42.178;26.578;2023-11-22T07:54:40;99601.25;;;14.20;100.00
21234;BME280;10774;42.178;26.578;2023-11-22T07:57:06;99600.97;;;14.23;100.00
21234;BME280;10774;42.178;26.578;2023-11-22T07:59:32;99616.50;;;14.10;100.00
21234;BME280;10774;42.178;26.578;2023-11-22T08:01:58;99610.31;;;14.19;100.00
21234;BME280;10774;42.178;26.578;2023-11-22T08:04:26;99621.31;;;14.27;100.00
21234;BME280;10774;42.178;26.578;2023-11-22T08:06:53;99611.28;;;14.29;100.00
21234;BME280;10774;42.178;26.578;2023-11-22T08:09:22;99618.78;;;14.47;100.00
21234;BME280;10774;42.178;26.578;2023-11-22T08:11:48;99619.66;;;14.15;100.00
21234;BME280;10774;42.178;26.578;2023-11-22T08:14:14;99616.78;;;14.28;100.00
21234;BME280;10774;42.178;26.578;2023-11-22T08:16:40;99627.09;;;14.55;100.00
21234;BME280;10774;42.178;26.578;2023-11-22T08:19:08;99611.06;;;14.42;100.00
21234;BME280;10774;42.178;26.578;2023-11-22T08:21:34;99629.03;;;14.00;100.00
21234;BME280;10774;42.178;26.578;2023-11-22T08:24:00;99641.03;;;14.07;100.00
21234;BME280;10774;42.178;26.578;2023-11-22T08:26:25;99641.59;;;14.22;100.00
21234;BME280;10774;42.178;26.578;2023-11-22T08:28:51;99642.59;;;14.21;100.00
21234;BME280;10774;42.178;26.578;2023-11-22T08:31:17;99646.38;;;14.18;100.00
21234;BME280;10774;42.178;26.578;2023-11-22T08:33:42;99645.78;;;14.47;100.00
21234;BME280;10774;42.178;26.578;2023-11-22T08:36:09;99655.03;;;14.33;100.00
21234;BME280;10774;42.178;26.578;2023-11-22T08:38:35;99646.56;;;14.37;100.00
21234;BME280;10774;42.178;26.578;2023-11-22T08:41:04;99656.69;;;14.56;100.00
21234;BME280;10774;42.178;26.578;2023-11-22T08:43:34;99649.91;;;14.62;100.00
21234;BME280;10774;42.178;26.578;2023-11-22T08:46:00;99644.63;;;14.60;100.00
21234;BME280;10774;42.178;26.578;2023-11-22T08:48:30;99651.16;;;14.79;100.00
21234;BME280;10774;42.178;26.578;2023-11-22T08:50:55;99636.19;;;14.96;100.00
21234;BME280;10774;42.178;26.578;2023-11-22T08:53:22;99637.66;;;15.30;100.00
21234;BME280;10774;42.178;26.578;2023-11-22T08:55:48;99640.44;;;15.19;100.00
21234;BME280;10774;42.178;26.578;2023-11-22T08:58:13;99639.50;;;15.39;100.00
21234;BME280;10774;42.178;26.578;2023-11-22T09:00:39;99645.44;;;15.24;100.00
21234;BME280;10774;42.178;26.578;2023-11-22T09:03:07;99639.41;;;15.10;100.00
21234;BME280;10774;42.178;26.578;2023-11-22T09:05:32;99643.34;;;15.06;100.00
21234;BME280;10774;42.178;26.578;2023-11-22T09:07:58;99635.25;;;15.06;100.00
21234;BME280;10774;42.178;26.578;2023-11-22T09:10:26;99638.81;;;15.07;100.00
21234;BME280;10774;42.178;26.578;2023-11-22T09:12:52;99631.31;;;14.89;100.00
21234;BME280;10774;42.178;26.578;2023-11-22T09:15:18;99633.94;;;15.31;100.00
21234;BME280;10774;42.178;26.578;2023-11-22T09:17:49;99644.72;;;15.52;100.00
21234;BME280;10774;42.178;26.578;2023-11-22T09:20:15;99638.38;;;15.32;100.00
21234;BME280;10774;42.178;26.578;2023-11-22T09:22:42;99637.38;;;15.33;100.00
21234;BME280;10774;42.178;26.578;2023-11-22T09:25:25;99623.03;;;15.12;100.00
21234;BME280;10774;42.178;26.578;2023-11-22T09:27:52;99631.06;;;15.23;100.00
21234;BME280;10774;42.178;26.578;2023-11-22T09:30:22;99627.13;;;15.06;100.00
21234;BME280;10774;42.178;26.578;2023-11-22T09:33:06;99636.47;;;15.23;100.00
21234;BME280;10774;42.178;26.578;2023-11-22T09:35:33;99634.66;;;15.33;100.00
21234;BME280;10774;42.178;26.578;2023-11-22T09:37:59;99632.34;;;15.29;100.00
21234;BME280;10774;42.178;26.578;2023-11-22T09:40:26;99633.84;;;15.12;100.00
21234;BME280;10774;42.178;26.578;2023-11-22T09:42:59;99639.47;;;15.20;100.00
21234;BME280;10774;42.178;26.578;2023-11-22T09:45:28;99641.84;;;15.54;100.00
21234;BME280;10774;42.178;26.578;2023-11-22T09:47:55;99648.06;;;15.44;100.00
21234;BME280;10774;42.178;26.578;2023-11-22T09:50:29;99635.22;;;15.27;100.00
21234;BME280;10774;42.178;26.578;2023-11-22T09:53:00;99631.78;;;15.25;100.00
21234;BME280;10774;42.178;26.578;2023-11-22T09:55:28;99637.81;;;15.38;100.00
21234;BME280;10774;42.178;26.578;2023-11-22T09:57:58;99625.69;;;15.02;100.00
21234;BME280;10774;42.178;26.578;2023-11-22T10:00:24;99640.00;;;15.14;100.00
21234;BME280;10774;42.178;26.578;2023-11-22T10:02:52;99637.25;;;15.35;100.00
21234;BME280;10774;42.178;26.578;2023-11-22T10:05:19;99628.44;;;15.42;100.00
21234;BME280;10774;42.178;26.578;2023-11-22T10:07:46;99639.22;;;15.33;100.00
21234;BME280;10774;42.178;26.578;2023-11-22T10:10:14;99632.84;;;15.03;100.00
21234;BME280;10774;42.178;26.578;2023-11-22T10:12:42;99628.47;;;14.91;100.00
21234;BME280;10774;42.178;26.578;2023-11-22T10:15:16;99640.34;;;14.79;100.00
21234;BME280;10774;42.178;26.578;2023-11-22T10:17:57;99645.16;;;14.75;100.00
21234;BME280;10774;42.178;26.578;2023-11-22T10:20:49;99644.91;;;14.78;100.00
21234;BME280;10774;42.178;26.578;2023-11-22T10:23:16;99642.38;;;14.86;100.00
21234;BME280;10774;42.178;26.578;2023-11-22T10:25:47;99639.75;;;14.75;100.00
21234;BME280;10774;42.178;26.578;2023-11-22T10:28:15;99636.59;;;14.70;100.00
21234;BME280;10774;42.178;26.578;2023-11-22T10:30:43;99644.19;;;14.55;100.00
21234;BME280;10774;42.178;26.578;2023-11-22T10:33:12;99633.66;;;14.41;100.00
21234;BME280;10774;42.178;26.578;2023-11-22T10:35:47;99639.63;;;14.56;100.00
21234;BME280;10774;42.178;26.578;2023-11-22T10:38:17;99639.19;;;14.51;100.00
21234;BME280;10774;42.178;26.578;2023-11-22T10:40:44;99635.88;;;14.47;100.00
21234;BME280;10774;42.178;26.578;2023-11-22T10:43:14;99642.00;;;14.38;100.00
21234;BME280;10774;42.178;26.578;2023-11-22T10:45:41;99640.50;;;14.24;100.00
21234;BME280;10774;42.178;26.578;2023-11-22T10:48:10;99645.88;;;14.24;100.00
21234;BME280;10774;42.178;26.578;2023-11-22T10:50:36;99642.66;;;14.30;100.00
21234;BME280;10774;42.178;26.578;2023-11-22T10:53:04;99627.94;;;14.34;100.00
21234;BME280;10774;42.178;26.578;2023-11-22T10:55:32;99620.28;;;14.51;100.00
21234;BME280;10774;42.178;26.578;2023-11-22T10:58:02;99645.03;;;14.56;100.00
21234;BME280;10774;42.178;26.578;2023-11-22T11:00:29;99646.53;;;14.49;100.00
21234;BME280;10774;42.178;26.578;2023-11-22T11:03:05;99637.47;;;14.38;100.00
21234;BME280;10774;42.178;26.578;2023-11-22T11:05:35;99637.91;;;14.55;100.00
21234;BME280;10774;42.178;26.578;2023-11-22T11:08:11;99642.19;;;14.25;100.00
21234;BME280;10774;42.178;26.578;2023-11-22T11:10:41;99626.47;;;14.30;100.00
21234;BME280;10774;42.178;26.578;2023-11-22T11:13:08;99628.22;;;14.20;100.00
21234;BME280;10774;42.178;26.578;2023-11-22T11:15:41;99636.94;;;14.45;100.00
21234;BME280;10774;42.178;26.578;2023-11-22T11:18:13;99651.63;;;14.31;100.00
21234;BME280;10774;42.178;26.578;2023-11-22T11:20:57;99642.59;;;14.21;100.00
21234;BME280;10774;42.178;26.578;2023-11-22T11:23:27;99643.28;;;14.23;100.00
21234;BME280;10774;42.178;26.578;2023-11-22T11:28:20;99626.09;;;14.03;100.00
21234;BME280;10774;42.178;26.578;2023-11-22T11:30:50;99643.22;;;14.13;100.00
21234;BME280;10774;42.178;26.578;2023-11-22T11:33:18;99617.63;;;13.96;100.00
21234;BME280;10774;42.178;26.578;2023-11-22T11:35:49;99644.44;;;14.20;100.00
21234;BME280;10774;42.178;26.578;2023-11-22T11:38:21;99634.91;;;14.37;100.00
21234;BME280;10774;42.178;26.578;2023-11-22T11:40:48;99644.31;;;14.43;100.00
21234;BME280;10774;42.178;26.578;2023-11-22T11:43:14;99641.53;;;14.65;100.00
21234;BME280;10774;42.178;26.578;2023-11-22T11:45:42;99631.78;;;14.74;100.00
21234;BME280;10774;42.178;26.578;2023-11-22T11:48:16;99635.28;;;14.85;100.00
21234;BME280;10774;42.178;26.578;2023-11-22T11:50:42;99619.84;;;14.76;100.00
21234;BME280;10774;42.178;26.578;2023-11-22T11:53:12;99623.91;;;14.91;100.00
21234;BME280;10774;42.178;26.578;2023-11-22T11:55:37;99622.81;;;14.94;100.00
21234;BME280;10774;42.178;26.578;2023-11-22T11:58:07;99631.63;;;14.96;100.00
21234;BME280;10774;42.178;26.578;2023-11-22T12:00:37;99634.25;;;15.07;100.00
21234;BME280;10774;42.178;26.578;2023-11-22T12:03:08;99619.72;;;14.99;100.00
21234;BME280;10774;42.178;26.578;2023-11-22T12:05:40;99647.69;;;14.67;100.00
21234;BME280;10774;42.178;26.578;2023-11-22T12:08:05;99648.22;;;14.61;100.00
21234;BME280;10774;42.178;26.578;2023-11-22T12:10:31;99641.13;;;14.70;100.00
21234;BME280;10774;42.178;26.578;2023-11-22T12:12:57;99639.03;;;14.52;100.00
21234;BME280;10774;42.178;26.578;2023-11-22T12:15:25;99649.00;;;14.52;100.00
21234;BME280;10774;42.178;26.578;2023-11-22T12:17:53;99653.09;;;14.67;100.00
21234;BME280;10774;42.178;26.578;2023-11-22T12:20:22;99653.59;;;14.61;100.00
21234;BME280;10774;42.178;26.578;2023-11-22T12:22:48;99646.75;;;14.57;100.00
21234;BME280;10774;42.178;26.578;2023-11-22T12:25:14;99639.19;;;14.39;100.00
21234;BME280;10774;42.178;26.578;2023-11-22T12:27:43;99641.59;;;14.22;100.00
21234;BME280;10774;42.178;26.578;2023-11-22T12:30:29;99636.34;;;14.20;100.00
21234;BME280;10774;42.178;26.578;2023-11-22T12:32:57;99639.88;;;14.21;100.00
21234;BME280;10774;42.178;26.578;2023-11-22T12:35:25;99655.03;;;14.33;100.00
21234;BME280;10774;42.178;26.578;2023-11-22T12:37:50;99655.28;;;14.09;100.00
21234;BME280;10774;42.178;26.578;2023-11-22T12:40:16;99666.69;;;14.33;100.00
21234;BME280;10774;42.178;26.578;2023-11-22T12:42:50;99662.56;;;14.18;100.00